Time;durP1;ratioP1;P1;durP2;ratioP2;P2;SDS_P1;SDS_P2;PMS_P1;PMS_P2;Temp;Humidity;BMP_temperature;BMP_pressure;BME280_temperature;BME280_humidity;BME280_pressure;Samples;Min_cycle;Max_cycle;Signal;HPM_P1;HPM_P2
2022/04/04 00:01:04;;;;;;;12.05;3.03;;;4.70;99.90;;;;;;5032881;28;20390;-65
2022/04/04 00:03:30;;;;;;;11.57;2.40;;;4.40;99.90;;;;;;5033380;28;20065;-65
2022/04/04 00:05:56;;;;;;;11.30;2.38;;;4.20;99.90;;;;;;5032832;28;20022;-66
2022/04/04 00:08:22;;;;;;;8.80;2.05;;;4.10;99.90;;;;;;5032671;28;20029;-65
2022/04/04 00:10:47;;;;;;;10.32;2.63;;;4.00;99.90;;;;;;5034955;28;20033;-65
2022/04/04 00:13:13;;;;;;;6.53;2.20;;;3.90;99.90;;;;;;5036435;28;20032;-65
2022/04/04 00:15:39;;;;;;;4.90;2.25;;;3.90;99.90;;;;;;5036335;28;20026;-65
2022/04/04 00:18:10;;;;;;;12.80;2.28;;;3.90;99.90;;;;;;5036222;28;20040;-66
2022/04/04 00:20:36;;;;;;;15.93;3.35;;;3.80;99.90;;;;;;5036830;28;20071;-65
2022/04/04 00:23:02;;;;;;;18.85;2.70;;;3.80;99.90;;;;;;5036499;28;20524;-66
2022/04/04 00:25:28;;;;;;;14.30;2.92;;;3.80;99.90;;;;;;5036706;28;20022;-65
2022/04/04 00:27:54;;;;;;;20.40;3.03;;;3.80;99.90;;;;;;5036053;28;20018;-66
2022/04/04 00:30:20;;;;;;;34.58;3.63;;;3.90;99.90;;;;;;5036086;28;20117;-66
2022/04/04 00:32:46;;;;;;;21.25;4.35;;;3.90;99.90;;;;;;5036020;28;20029;-66
2022/04/04 00:35:12;;;;;;;15.50;3.53;;;4.00;99.90;;;;;;5036040;28;20029;-66
2022/04/04 00:37:37;;;;;;;18.45;2.85;;;4.00;99.90;;;;;;5036709;28;20432;-66
2022/04/04 00:40:08;;;;;;;14.98;3.03;;;4.10;99.90;;;;;;5036440;28;20029;-66
2022/04/04 00:42:34;;;;;;;31.83;3.45;;;4.10;99.90;;;;;;5036301;28;20084;-66
2022/04/04 00:45:00;;;;;;;15.73;3.00;;;4.20;99.90;;;;;;5035853;28;20477;-65
2022/04/04 00:47:25;;;;;;;30.60;2.70;;;4.30;99.90;;;;;;5035782;28;20032;-66
2022/04/04 00:49:51;;;;;;;12.50;3.42;;;4.30;99.90;;;;;;5035779;28;20420;-66
2022/04/04 00:52:17;;;;;;;21.02;2.92;;;4.30;99.90;;;;;;5036207;28;20080;-66
2022/04/04 00:54:43;;;;;;;15.93;2.85;;;4.40;99.90;;;;;;5035646;28;20067;-66
2022/04/04 00:57:08;;;;;;;18.88;3.53;;;4.40;99.90;;;;;;5035584;28;20112;-66
2022/04/04 00:59:36;;;;;;;21.17;3.08;;;4.40;99.90;;;;;;5035398;28;20029;-66
2022/04/04 01:02:02;;;;;;;26.55;3.17;;;4.40;99.90;;;;;;5035544;28;20025;-66
2022/04/04 01:04:27;;;;;;;26.70;3.90;;;4.40;99.90;;;;;;5035738;28;20045;-66
2022/04/04 01:06:53;;;;;;;23.58;3.47;;;4.50;99.90;;;;;;5035714;28;20049;-66
2022/04/04 01:09:18;;;;;;;31.08;3.60;;;4.50;99.90;;;;;;5035240;28;20033;-66
2022/04/04 01:12:07;;;;;;;33.75;3.42;;;4.50;99.90;;;;;;5035876;28;20496;-66
2022/04/04 01:14:52;;;;;;;16.98;3.13;;;4.50;99.90;;;;;;5035263;28;20025;-66
2022/04/04 01:17:27;;;;;;;28.83;4.88;;;4.50;99.90;;;;;;5035452;28;20041;-66
2022/04/04 01:19:53;;;;;;;28.48;3.35;;;4.60;99.90;;;;;;5035190;28;20413;-66
2022/04/04 01:22:19;;;;;;;18.65;4.90;;;4.60;99.90;;;;;;5034292;28;20025;-66
2022/04/04 01:24:44;;;;;;;18.52;3.30;;;4.60;99.90;;;;;;5035119;28;20384;-66
2022/04/04 01:27:14;;;;;;;22.02;2.95;;;4.60;99.90;;;;;;5035309;28;20485;-66
2022/04/04 01:29:40;;;;;;;26.52;4.07;;;4.70;99.90;;;;;;5034928;28;20048;-66
2022/04/04 01:32:07;;;;;;;39.92;3.45;;;4.70;99.90;;;;;;5035202;28;20408;-66
2022/04/04 01:34:32;;;;;;;27.92;3.22;;;4.70;99.90;;;;;;5034936;28;20029;-66
2022/04/04 01:36:58;;;;;;;17.20;3.50;;;4.70;99.90;;;;;;5034824;28;20025;-66
2022/04/04 01:39:24;;;;;;;20.77;4.93;;;4.80;99.90;;;;;;5034933;28;20037;-66
2022/04/04 01:41:49;;;;;;;30.15;3.70;;;4.80;99.90;;;;;;5034737;28;20029;-66
2022/04/04 01:44:16;;;;;;;33.08;4.07;;;4.80;99.90;;;;;;5034694;28;20053;-66
2022/04/04 01:46:42;;;;;;;16.65;3.05;;;4.80;99.90;;;;;;5034649;28;20072;-66
2022/04/04 01:49:08;;;;;;;31.80;3.55;;;4.80;99.90;;;;;;5034489;28;20026;-66
2022/04/04 01:51:35;;;;;;;20.95;4.50;;;4.80;99.90;;;;;;5034863;28;20030;-66
2022/04/04 01:54:01;;;;;;;25.30;3.40;;;4.90;99.90;;;;;;5034497;28;20021;-66
2022/04/04 01:56:28;;;;;;;29.70;4.00;;;4.90;99.90;;;;;;5034427;28;20033;-66
2022/04/04 01:58:54;;;;;;;33.33;5.45;;;4.80;99.90;;;;;;5034258;28;20040;-66
2022/04/04 02:01:22;;;;;;;23.23;3.92;;;4.80;99.90;;;;;;5034376;28;20039;-66
2022/04/04 02:03:51;;;;;;;24.67;3.70;;;4.90;99.90;;;;;;5034851;28;20412;-66
2022/04/04 02:06:18;;;;;;;23.38;4.10;;;4.90;99.90;;;;;;5034217;28;20030;-66
2022/04/04 02:08:44;;;;;;;23.50;3.97;;;4.90;99.90;;;;;;5034187;28;20083;-66
2022/04/04 02:11:10;;;;;;;24.23;4.20;;;4.90;99.90;;;;;;5034662;28;20049;-66
2022/04/04 02:13:36;;;;;;;26.52;3.80;;;4.90;99.90;;;;;;5034428;28;20052;-66
2022/04/04 02:16:03;;;;;;;32.90;4.07;;;5.00;99.90;;;;;;5034122;28;20547;-66
2022/04/04 02:18:31;;;;;;;36.53;6.20;;;5.00;99.90;;;;;;5034168;28;20037;-66
2022/04/04 02:20:57;;;;;;;24.60;4.15;;;5.00;99.90;;;;;;5033988;28;20057;-66
2022/04/04 02:23:24;;;;;;;26.25;3.95;;;5.10;99.90;;;;;;5034095;28;20489;-66
2022/04/04 02:25:51;;;;;;;27.23;4.07;;;5.10;99.90;;;;;;5033900;28;20036;-66
2022/04/04 02:28:17;;;;;;;27.08;4.60;;;5.10;99.90;;;;;;5034065;28;20029;-66
2022/04/04 02:30:43;;;;;;;34.72;5.60;;;5.10;99.90;;;;;;5033864;28;20112;-66
2022/04/04 02:33:10;;;;;;;29.67;5.47;;;5.10;99.90;;;;;;5033768;28;20496;-66
2022/04/04 02:35:35;;;;;;;28.98;5.30;;;5.20;99.90;;;;;;5033794;28;20021;-66
2022/04/04 02:38:02;;;;;;;27.80;5.18;;;5.20;99.90;;;;;;5033883;28;20030;-67
2022/04/04 02:40:29;;;;;;;28.92;4.53;;;5.20;99.90;;;;;;5033710;28;20022;-66
2022/04/04 02:42:55;;;;;;;35.08;6.40;;;5.20;99.90;;;;;;5033686;28;20026;-66
2022/04/04 02:45:20;;;;;;;37.13;5.07;;;5.20;99.90;;;;;;5033897;28;20032;-66
2022/04/04 02:47:46;;;;;;;30.83;5.38;;;5.20;99.90;;;;;;5033606;28;20060;-66
2022/04/04 02:50:12;;;;;;;39.67;5.85;;;5.20;99.90;;;;;;5033432;28;20021;-66
2022/04/04 02:52:38;;;;;;;33.10;5.95;;;5.20;99.90;;;;;;5033702;28;20084;-66
2022/04/04 02:57:50;;;;;;;45.42;7.05;;;5.20;99.90;;;;;;5033743;28;20032;-66
2022/04/04 03:00:17;;;;;;;32.10;5.35;;;5.10;99.90;;;;;;5033335;28;20029;-66
2022/04/04 03:02:44;;;;;;;41.28;6.65;;;5.20;99.90;;;;;;5033883;28;20433;-66
2022/04/04 03:05:10;;;;;;;30.67;5.78;;;5.10;99.90;;;;;;5034125;28;20091;-66
2022/04/04 03:07:35;;;;;;;35.70;6.50;;;5.10;99.90;;;;;;5033366;28;20474;-66
2022/04/04 03:10:01;;;;;;;42.05;8.50;;;5.10;99.90;;;;;;5033293;28;20037;-66
2022/04/04 03:12:27;;;;;;;42.38;8.18;;;5.00;99.90;;;;;;5033336;28;20489;-66
2022/04/04 03:14:52;;;;;;;30.25;6.78;;;5.00;99.90;;;;;;5033297;28;20067;-66
2022/04/04 03:17:18;;;;;;;37.20;6.78;;;5.00;99.90;;;;;;5033199;28;20083;-66
2022/04/04 03:19:43;;;;;;;34.13;7.68;;;4.90;99.90;;;;;;5033190;28;20435;-66
2022/04/04 03:22:09;;;;;;;31.83;7.60;;;4.90;99.90;;;;;;5033187;28;20071;-66
2022/04/04 03:24:35;;;;;;;29.65;5.85;;;4.90;99.90;;;;;;5033416;28;20048;-66
2022/04/04 03:27:01;;;;;;;34.72;7.63;;;4.90;99.90;;;;;;5033185;28;20092;-66
2022/04/04 03:29:26;;;;;;;55.47;7.15;;;4.80;99.90;;;;;;5033189;28;20030;-66
2022/04/04 03:31:53;;;;;;;24.83;6.88;;;4.80;99.90;;;;;;5033130;28;20033;-66
2022/04/04 03:34:18;;;;;;;29.85;6.93;;;4.80;99.90;;;;;;5033119;28;20470;-66
2022/04/04 03:36:44;;;;;;;48.28;8.00;;;4.80;99.90;;;;;;5033095;28;20034;-66
2022/04/04 03:39:13;;;;;;;42.17;9.23;;;4.80;99.90;;;;;;5032864;28;20026;-66
2022/04/04 03:41:39;;;;;;;30.48;8.80;;;4.80;99.90;;;;;;5033366;28;20377;-66
2022/04/04 03:44:06;;;;;;;22.77;7.30;;;4.80;99.90;;;;;;5033169;28;20022;-66
2022/04/04 03:46:32;;;;;;;39.70;8.40;;;4.80;99.90;;;;;;5036613;28;20485;-66
2022/04/04 03:48:57;;;;;;;38.40;9.32;;;4.80;99.90;;;;;;5036850;28;20112;-66
2022/04/04 03:51:23;;;;;;;36.78;9.68;;;4.80;99.90;;;;;;5036836;28;20462;-66
2022/04/04 03:53:49;;;;;;;29.42;9.18;;;4.80;99.90;;;;;;5036750;28;20494;-66
2022/04/04 03:56:15;;;;;;;37.88;10.73;;;4.80;99.90;;;;;;5036719;28;20061;-66
2022/04/04 03:58:40;;;;;;;33.88;11.60;;;4.80;99.90;;;;;;5036584;28;20509;-66
2022/04/04 04:01:06;;;;;;;33.70;12.60;;;4.90;99.90;;;;;;5037206;28;20060;-66
2022/04/04 04:03:31;;;;;;;36.38;12.30;;;4.90;99.90;;;;;;5036703;28;20432;-66
2022/04/04 04:06:11;;;;;;;53.47;14.55;;;4.90;99.90;;;;;;5037118;28;20022;-66
2022/04/04 04:08:38;;;;;;;40.10;12.23;;;4.90;99.90;;;;;;5036657;28;20075;-66
2022/04/04 04:11:03;;;;;;;56.47;13.73;;;4.90;99.90;;;;;;5036843;28;20029;-65
2022/04/04 04:13:29;;;;;;;47.20;13.90;;;4.90;99.90;;;;;;5036433;28;20032;-65
2022/04/04 04:15:54;;;;;;;45.60;14.55;;;4.90;99.90;;;;;;5036959;28;20466;-65
2022/04/04 04:18:20;;;;;;;50.20;15.38;;;4.80;99.90;;;;;;5018400;28;20120;-66
2022/04/04 04:20:45;;;;;;;46.65;16.40;;;4.80;99.90;;;;;;5036355;28;20109;-66
2022/04/04 04:23:13;;;;;;;47.20;16.45;;;4.70;99.90;;;;;;5036215;28;20079;-66
2022/04/04 04:25:38;;;;;;;47.33;17.63;;;4.70;99.90;;;;;;5036215;28;20063;-65
2022/04/04 04:28:06;;;;;;;48.42;17.52;;;4.70;99.90;;;;;;5036071;28;20033;-66
2022/04/04 04:30:32;;;;;;;47.90;18.63;;;4.60;99.90;;;;;;5036454;28;20445;-66
2022/04/04 04:32:58;;;;;;;44.97;18.25;;;4.60;99.90;;;;;;5036110;28;20033;-65
2022/04/04 04:35:24;;;;;;;47.45;18.30;;;4.60;99.90;;;;;;5036425;28;20073;-66
2022/04/04 04:37:50;;;;;;;50.60;18.08;;;4.60;99.90;;;;;;5035882;28;20025;-65
2022/04/04 04:40:17;;;;;;;38.92;18.48;;;4.50;99.90;;;;;;5035905;28;20040;-65
2022/04/04 04:42:44;;;;;;;56.35;19.98;;;4.50;99.90;;;;;;5036206;28;20428;-66
2022/04/04 04:45:11;;;;;;;53.17;20.58;;;4.40;99.90;;;;;;5035812;28;20021;-65
2022/04/04 04:47:37;;;;;;;56.33;19.92;;;4.40;99.90;;;;;;5035761;28;20199;-65
2022/04/04 04:50:04;;;;;;;48.63;20.50;;;4.40;99.90;;;;;;5035726;28;20533;-65
2022/04/04 04:52:30;;;;;;;51.75;19.75;;;4.40;99.90;;;;;;5017972;28;20036;-66
2022/04/04 04:54:55;;;;;;;46.90;20.80;;;4.30;99.90;;;;;;5035634;28;20029;-66
2022/04/04 04:57:21;;;;;;;50.10;24.00;;;4.30;99.90;;;;;;5034316;28;20025;-65
2022/04/04 04:59:48;;;;;;;55.03;23.95;;;4.40;99.90;;;;;;5035487;28;20096;-65
2022/04/04 05:02:14;;;;;;;57.03;25.63;;;4.40;99.90;;;;;;5035548;28;20025;-66
2022/04/04 05:04:39;;;;;;;61.97;24.92;;;4.40;99.90;;;;;;5035772;28;20489;-66
2022/04/04 05:07:08;;;;;;;52.25;24.55;;;4.30;99.90;;;;;;5035428;28;20021;-65
2022/04/04 05:09:34;;;;;;;51.45;24.30;;;4.30;99.90;;;;;;5035961;28;20059;-66
2022/04/04 05:12:00;;;;;;;54.88;26.10;;;4.30;99.90;;;;;;5035316;28;20026;-66
2022/04/04 05:14:25;;;;;;;68.05;27.23;;;4.30;99.90;;;;;;5035440;28;20032;-66
2022/04/04 05:16:53;;;;;;;72.28;27.45;;;4.30;99.90;;;;;;5035648;28;20039;-66
2022/04/04 05:19:19;;;;;;;72.85;30.05;;;4.30;99.90;;;;;;5035039;28;20025;-67
2022/04/04 05:21:46;;;;;;;71.18;28.65;;;4.30;99.90;;;;;;5035205;28;20098;-66
2022/04/04 05:24:12;;;;;;;70.13;28.80;;;4.30;99.90;;;;;;5035206;28;20021;-66
2022/04/04 05:26:38;;;;;;;74.53;28.25;;;4.40;99.90;;;;;;5035685;28;20025;-66
2022/04/04 05:29:04;;;;;;;65.20;27.17;;;4.40;99.90;;;;;;5035364;28;20036;-66
2022/04/04 05:31:30;;;;;;;70.50;29.80;;;4.40;99.90;;;;;;5034914;28;20025;-66
2022/04/04 05:33:57;;;;;;;56.90;24.35;;;4.50;99.90;;;;;;5034941;28;20029;-66
2022/04/04 05:36:24;;;;;;;69.78;26.58;;;4.50;99.90;;;;;;5034884;28;20045;-66
2022/04/04 05:38:50;;;;;;;68.53;26.25;;;4.50;99.90;;;;;;5034864;28;20021;-66
2022/04/04 05:41:17;;;;;;;49.33;22.38;;;4.50;99.90;;;;;;5034772;28;20105;-66
2022/04/04 05:43:44;;;;;;;59.25;20.95;;;4.50;99.90;;;;;;5034780;28;20026;-66
2022/04/04 05:46:11;;;;;;;56.65;18.75;;;4.40;99.90;;;;;;5034616;28;20477;-66
2022/04/04 05:48:37;;;;;;;50.30;19.30;;;4.40;99.90;;;;;;5034599;28;20036;-66
2022/04/04 05:51:03;;;;;;;57.10;20.23;;;4.40;99.90;;;;;;5034816;28;20036;-66
2022/04/04 05:53:29;;;;;;;50.33;21.38;;;4.40;99.90;;;;;;5034815;28;20025;-66
2022/04/04 05:55:55;;;;;;;39.85;19.15;;;4.40;99.90;;;;;;5034506;28;20053;-66
2022/04/04 05:58:20;;;;;;;48.75;17.98;;;4.40;99.90;;;;;;5034278;28;20033;-66
2022/04/04 06:00:46;;;;;;;52.45;16.10;;;4.30;99.90;;;;;;5034359;28;20055;-66
2022/04/04 06:03:12;;;;;;;34.50;13.27;;;4.40;99.90;;;;;;5034360;28;20052;-66
2022/04/04 06:05:38;;;;;;;22.55;9.25;;;4.30;99.90;;;;;;5034345;28;20017;-66
2022/04/04 06:08:04;;;;;;;32.10;9.60;;;4.30;99.90;;;;;;5034356;28;20033;-66
2022/04/04 06:10:29;;;;;;;25.30;9.40;;;4.30;99.90;;;;;;5034102;28;20490;-66
2022/04/04 06:12:55;;;;;;;31.65;8.25;;;4.30;99.90;;;;;;5034193;28;20041;-66
2022/04/04 06:15:20;;;;;;;30.55;7.50;;;4.40;99.90;;;;;;5034453;28;20025;-67
2022/04/04 06:17:47;;;;;;;26.27;6.47;;;4.50;99.90;;;;;;5034063;28;20081;-67
2022/04/04 06:20:13;;;;;;;25.27;6.60;;;4.40;99.90;;;;;;5034290;28;20033;-67
2022/04/04 06:22:40;;;;;;;33.35;7.90;;;4.40;99.90;;;;;;5034043;28;20022;-67
2022/04/04 06:25:10;;;;;;;35.47;6.75;;;4.40;99.90;;;;;;5034476;28;20375;-67
2022/04/04 06:27:36;;;;;;;24.50;5.85;;;4.50;99.90;;;;;;5034314;28;20017;-67
2022/04/04 06:30:06;;;;;;;32.95;7.68;;;4.50;99.90;;;;;;5016122;28;20029;-67
2022/04/04 06:32:33;;;;;;;47.33;7.22;;;4.50;99.90;;;;;;5033865;28;20564;-67
2022/04/04 06:34:59;;;;;;;22.23;4.65;;;4.50;99.90;;;;;;5033926;28;20026;-67
2022/04/04 06:37:24;;;;;;;33.83;5.78;;;4.40;99.90;;;;;;5033781;28;20029;-66
2022/04/04 06:39:50;;;;;;;30.05;4.72;;;4.50;99.90;;;;;;5033739;28;20054;-66
2022/04/04 06:42:16;;;;;;;21.25;4.72;;;4.50;99.90;;;;;;5033904;28;20485;-66
2022/04/04 06:44:42;;;;;;;27.90;5.35;;;4.50;99.90;;;;;;5033541;28;20030;-67
2022/04/04 06:47:08;;;;;;;31.25;4.78;;;4.50;99.90;;;;;;5033797;28;20037;-67
2022/04/04 06:49:34;;;;;;;32.03;5.40;;;4.50;99.90;;;;;;5033547;28;20071;-67
2022/04/04 06:52:00;;;;;;;30.05;4.03;;;4.50;99.90;;;;;;5033825;28;20033;-67
2022/04/04 06:54:27;;;;;;;34.33;4.63;;;4.50;99.90;;;;;;5033770;28;20036;-66
2022/04/04 06:56:53;;;;;;;32.60;4.30;;;4.40;99.90;;;;;;5033748;28;20033;-66
2022/04/04 06:59:19;;;;;;;33.35;4.45;;;4.40;99.90;;;;;;5033301;28;20026;-66
2022/04/04 07:01:46;;;;;;;25.45;3.28;;;4.40;99.90;;;;;;5034043;28;20030;-66
2022/04/04 07:04:12;;;;;;;29.67;5.35;;;4.40;99.90;;;;;;5033444;28;20025;-66
2022/04/04 07:06:38;;;;;;;30.25;3.63;;;4.30;99.90;;;;;;5033891;28;20025;-66
2022/04/04 07:09:03;;;;;;;37.15;6.22;;;4.30;99.90;;;;;;5033293;28;20394;-66
2022/04/04 07:11:29;;;;;;;51.58;4.15;;;4.30;99.90;;;;;;5033894;28;20030;-66
2022/04/04 07:13:55;;;;;;;32.70;4.63;;;4.30;99.90;;;;;;5033579;28;20029;-66
2022/04/04 07:16:21;;;;;;;25.75;4.20;;;4.30;99.90;;;;;;5033312;28;20099;-66
2022/04/04 07:18:48;;;;;;;29.02;4.03;;;4.30;99.90;;;;;;5033100;28;20485;-66
2022/04/04 07:21:15;;;;;;;23.88;3.83;;;4.30;99.90;;;;;;5036684;28;20406;-66
2022/04/04 07:23:41;;;;;;;54.60;5.18;;;4.30;99.90;;;;;;5037923;28;20096;-66
2022/04/04 07:26:06;;;;;;;43.75;5.95;;;4.30;99.90;;;;;;5037329;28;20064;-66
2022/04/04 07:28:32;;;;;;;17.60;4.03;;;4.30;99.90;;;;;;5037200;28;20041;-66
2022/04/04 07:30:58;;;;;;;30.27;4.97;;;4.30;99.90;;;;;;5037772;28;20037;-66
2022/04/04 07:33:24;;;;;;;33.20;4.63;;;4.40;99.90;;;;;;5037182;28;20509;-66
2022/04/04 07:35:49;;;;;;;30.75;4.65;;;4.40;99.90;;;;;;5037136;28;20033;-66
2022/04/04 07:38:16;;;;;;;44.35;7.03;;;4.50;99.90;;;;;;5037016;28;20444;-66
2022/04/04 07:40:42;;;;;;;30.92;5.47;;;4.40;99.90;;;;;;5037100;28;20093;-66
2022/04/04 07:43:08;;;;;;;41.40;5.53;;;4.40;99.90;;;;;;5036953;28;20033;-66
2022/04/04 07:45:34;;;;;;;42.17;6.30;;;4.30;99.90;;;;;;5036913;28;20452;-66
2022/04/04 07:48:01;;;;;;;36.05;4.85;;;4.40;99.90;;;;;;5037280;28;20067;-66
2022/04/04 07:50:27;;;;;;;49.17;5.85;;;4.40;99.90;;;;;;5037709;28;20026;-66
2022/04/04 07:52:53;;;;;;;36.92;6.60;;;4.40;99.90;;;;;;5036848;28;20026;-67
2022/04/04 07:55:18;;;;;;;53.45;9.55;;;4.40;99.90;;;;;;5036742;28;20025;-66
2022/04/04 07:57:44;;;;;;;43.58;5.63;;;4.40;99.90;;;;;;5036666;28;20075;-67
2022/04/04 08:00:14;;;;;;;50.67;5.60;;;4.40;99.90;;;;;;5018915;28;20049;-67
2022/04/04 08:02:40;;;;;;;50.38;7.25;;;4.40;99.90;;;;;;5036892;28;20025;-67
2022/04/04 08:05:07;;;;;;;37.78;4.72;;;4.40;99.90;;;;;;5036881;28;20026;-67
2022/04/04 08:07:32;;;;;;;38.95;6.00;;;4.40;99.90;;;;;;5036834;28;20393;-67
2022/04/04 08:09:58;;;;;;;46.72;6.60;;;4.40;99.90;;;;;;5036480;28;20037;-67
2022/04/04 08:12:28;;;;;;;33.10;4.75;;;4.40;99.90;;;;;;5036500;28;20018;-67
2022/04/04 08:14:54;;;;;;;40.10;6.53;;;4.40;99.90;;;;;;5036459;28;20033;-67
2022/04/04 08:17:20;;;;;;;52.13;8.48;;;4.50;99.90;;;;;;5036416;28;20067;-67
2022/04/04 08:19:46;;;;;;;39.55;5.85;;;4.50;99.90;;;;;;5036198;28;20033;-67
2022/04/04 08:22:12;;;;;;;34.92;5.68;;;4.40;99.90;;;;;;5036906;28;20025;-67
2022/04/04 08:24:38;;;;;;;43.42;6.55;;;4.40;99.90;;;;;;5036267;28;20101;-67
2022/04/04 08:27:04;;;;;;;36.53;5.05;;;4.40;99.90;;;;;;5036435;28;20045;-67
2022/04/04 08:29:30;;;;;;;41.95;5.70;;;4.50;99.90;;;;;;5036347;28;20119;-67
2022/04/04 08:31:55;;;;;;;58.13;6.30;;;4.50;99.90;;;;;;5035842;28;20482;-67
2022/04/04 08:34:21;;;;;;;46.00;5.47;;;4.60;99.90;;;;;;5036064;28;20436;-67
2022/04/04 08:36:47;;;;;;;37.53;5.28;;;4.60;99.90;;;;;;5036403;28;20485;-67
2022/04/04 08:39:13;;;;;;;41.65;6.68;;;4.60;99.90;;;;;;5036123;28;20486;-67
2022/04/04 08:41:38;;;;;;;51.92;6.45;;;4.70;99.90;;;;;;5035963;28;20101;-67
2022/04/04 08:44:05;;;;;;;58.47;7.03;;;4.70;99.90;;;;;;5035885;28;20024;-67
2022/04/04 08:46:33;;;;;;;53.22;7.25;;;4.80;99.90;;;;;;5035854;28;20482;-67
2022/04/04 08:49:00;;;;;;;47.05;6.55;;;4.80;99.90;;;;;;5035804;28;20044;-67
2022/04/04 08:51:26;;;;;;;48.88;7.90;;;4.80;99.90;;;;;;5035823;28;20033;-67
2022/04/04 08:53:53;;;;;;;47.03;6.43;;;4.90;99.90;;;;;;5035772;28;20021;-67
2022/04/04 08:56:21;;;;;;;45.58;6.25;;;4.90;99.90;;;;;;5035911;28;20059;-67
2022/04/04 08:58:47;;;;;;;51.05;7.63;;;5.00;99.90;;;;;;5035528;28;20060;-67
2022/04/04 09:01:13;;;;;;;47.15;6.47;;;5.00;99.90;;;;;;5035651;28;20051;-67
2022/04/04 09:03:38;;;;;;;48.60;8.18;;;5.10;99.90;;;;;;5035701;28;20466;-67
2022/04/04 09:06:04;;;;;;;52.13;8.02;;;5.10;99.90;;;;;;5035475;28;20061;-67
2022/04/04 09:08:42;;;;;;;57.22;8.85;;;5.20;99.90;;;;;;5035654;28;20044;-67
2022/04/04 09:11:07;;;;;;;45.92;9.00;;;5.30;99.90;;;;;;5035571;28;20134;-67
2022/04/04 09:13:34;;;;;;;48.50;8.15;;;5.30;99.90;;;;;;5035371;28;20498;-67
2022/04/04 09:16:07;;;;;;;65.78;11.50;;;5.30;99.90;;;;;;5035575;28;20017;-67
2022/04/04 09:18:39;;;;;;;70.57;10.13;;;5.40;99.90;;;;;;5035154;28;20021;-67
2022/04/04 09:21:10;;;;;;;72.50;9.70;;;5.40;99.90;;;;;;5017378;28;20032;-67
2022/04/04 09:23:54;;;;;;;57.97;8.60;;;5.50;99.90;;;;;;5035162;28;20044;-67
2022/04/04 09:26:42;;;;;;;52.03;7.43;;;5.40;99.90;;;;;;5035408;28;20013;-67
2022/04/04 09:29:22;;;;;;;54.20;7.82;;;5.50;99.90;;;;;;5035183;28;20026;-67
2022/04/04 09:31:57;;;;;;;66.90;8.38;;;5.50;99.90;;;;;;5035069;28;20030;-67
2022/04/04 09:34:23;;;;;;;66.70;9.13;;;5.50;99.90;;;;;;5034974;28;20022;-68
2022/04/04 09:36:49;;;;;;;66.28;9.35;;;5.50;99.90;;;;;;5034854;28;20032;-67
2022/04/04 09:39:16;;;;;;;37.60;7.03;;;5.60;99.90;;;;;;5034766;28;20393;-67
2022/04/04 09:41:42;;;;;;;70.55;8.73;;;5.60;99.90;;;;;;5035280;28;20026;-67
2022/04/04 09:44:08;;;;;;;47.33;7.57;;;5.60;99.90;;;;;;5034915;28;20036;-68
2022/04/04 09:46:42;;;;;;;50.55;8.32;;;5.70;99.90;;;;;;5035054;28;20101;-68
2022/04/04 09:49:20;;;;;;;57.03;8.90;;;5.70;99.90;;;;;;5034729;28;20496;-68
2022/04/04 09:51:51;;;;;;;53.22;10.23;;;5.70;99.90;;;;;;5034599;28;20504;-68
2022/04/04 09:54:28;;;;;;;48.95;7.32;;;5.80;99.90;;;;;;5034580;28;20108;-68
2022/04/04 09:57:16;;;;;;;54.42;7.60;;;5.80;99.90;;;;;;5034998;28;20448;-68
2022/04/04 09:59:42;;;;;;;41.33;7.30;;;5.80;99.90;;;;;;5034428;28;20026;-67
2022/04/04 10:02:11;;;;;;;44.65;7.53;;;5.90;99.90;;;;;;5034434;28;20026;-67
2022/04/04 10:04:38;;;;;;;56.55;9.13;;;5.90;99.90;;;;;;5034967;28;20021;-67
2022/04/04 10:07:08;;;;;;;34.75;6.78;;;5.90;99.90;;;;;;5034316;28;20030;-68
2022/04/04 10:09:35;;;;;;;45.53;6.88;;;5.90;99.90;;;;;;5034321;28;20041;-68
2022/04/04 10:12:02;;;;;;;54.22;7.20;;;6.00;99.90;;;;;;5034574;28;20450;-68
2022/04/04 10:14:30;;;;;;;42.67;6.15;;;6.00;99.90;;;;;;5034251;28;20105;-68
2022/04/04 10:16:57;;;;;;;53.47;8.27;;;6.00;99.90;;;;;;5034152;28;20052;-68
2022/04/04 10:19:25;;;;;;;35.80;5.72;;;6.10;99.90;;;;;;5034221;28;20022;-68
2022/04/04 10:21:51;;;;;;;35.67;7.00;;;6.10;99.90;;;;;;5016330;28;20389;-68
2022/04/04 10:24:17;;;;;;;64.43;6.70;;;6.20;99.90;;;;;;5034277;28;20028;-68
2022/04/04 10:26:48;;;;;;;52.53;6.38;;;6.10;99.90;;;;;;5033976;28;20072;-68
2022/04/04 10:29:20;;;;;;;36.85;6.22;;;6.20;99.90;;;;;;5016203;28;20078;-68
2022/04/04 10:31:55;;;;;;;39.45;7.22;;;6.20;99.90;;;;;;5034092;28;20489;-68
2022/04/04 10:34:23;;;;;;;51.88;6.63;;;6.20;99.90;;;;;;5016102;28;20029;-68
2022/04/04 10:37:06;;;;;;;51.33;6.65;;;6.20;99.90;;;;;;5033690;28;20029;-68
2022/04/04 10:39:47;;;;;;;40.33;4.82;;;6.30;99.90;;;;;;5033635;28;20367;-68
2022/04/04 10:42:41;;;;;;;27.15;4.82;;;6.30;99.90;;;;;;5033836;28;20020;-68
2022/04/04 10:45:11;;;;;;;34.40;4.90;;;6.40;99.90;;;;;;5034115;28;20376;-68
2022/04/04 10:47:44;;;;;;;58.03;6.05;;;6.30;99.90;;;;;;5033654;28;20080;-68
2022/04/04 10:50:30;;;;;;;35.97;5.07;;;6.40;99.90;;;;;;5033563;28;20022;-68
2022/04/04 10:53:00;;;;;;;55.85;7.43;;;6.40;99.90;;;;;;5034245;28;20474;-68
2022/04/04 10:55:36;;;;;;;35.08;4.13;;;6.50;99.90;;;;;;5033788;28;20053;-68
2022/04/04 10:58:33;;;;;;;33.90;5.10;;;6.50;99.90;;;;;;5033364;28;20021;-68
2022/04/04 11:01:09;;;;;;;30.90;4.30;;;6.50;99.90;;;;;;5029690;28;20044;-68
2022/04/04 11:03:36;;;;;;;40.88;6.05;;;6.60;99.90;;;;;;5033754;28;20027;-68
2022/04/04 11:08:58;;;;;;;45.30;6.38;;;6.60;99.90;;;;;;5033954;28;20060;-68
2022/04/04 11:11:50;;;;;;;49.25;4.95;;;6.60;99.90;;;;;;5033645;28;20037;-67
2022/04/04 11:14:39;;;;;;;38.30;4.20;;;6.70;99.90;;;;;;5033937;28;20040;-67
2022/04/04 11:17:23;;;;;;;41.50;4.95;;;6.70;99.90;;;;;;5033228;28;20025;-67
2022/04/04 11:20:00;;;;;;;29.40;4.18;;;6.70;99.90;;;;;;5033390;28;20384;-67
2022/04/04 11:22:29;;;;;;;37.00;4.78;;;6.80;99.90;;;;;;5033872;28;20017;-67
2022/04/04 11:24:58;;;;;;;37.05;4.38;;;6.90;99.90;;;;;;5033649;28;20026;-67
2022/04/04 11:27:27;;;;;;;26.85;3.53;;;6.90;99.90;;;;;;5015310;28;20043;-67
2022/04/04 11:29:53;;;;;;;33.72;6.30;;;6.90;99.90;;;;;;5033000;28;20026;-68
2022/04/04 11:32:40;;;;;;;29.98;4.22;;;6.90;99.90;;;;;;5033113;28;20108;-67
2022/04/04 11:35:30;;;;;;;17.33;3.50;;;7.00;99.90;;;;;;5032762;28;20079;-67
2022/04/04 11:38:01;;;;;;;20.23;3.22;;;7.00;99.90;;;;;;5033280;28;20049;-68
2022/04/04 11:40:32;;;;;;;27.55;4.10;;;7.10;99.90;;;;;;5033100;28;20032;-68
2022/04/04 11:42:58;;;;;;;21.98;3.25;;;7.10;99.90;;;;;;5033055;28;20033;-67
2022/04/04 11:45:27;;;;;;;20.63;3.17;;;7.10;99.90;;;;;;5033038;28;20026;-68
2022/04/04 11:47:57;;;;;;;12.13;2.53;;;7.10;99.90;;;;;;5033014;28;20021;-67
2022/04/04 11:50:28;;;;;;;22.27;2.97;;;7.10;99.90;;;;;;5033036;28;20018;-67
2022/04/04 11:53:02;;;;;;;22.67;2.78;;;7.10;99.90;;;;;;5033266;28;20047;-67
2022/04/04 11:55:32;;;;;;;18.80;2.63;;;7.10;99.90;;;;;;5033429;28;20377;-67
2022/04/04 11:58:00;;;;;;;19.98;3.25;;;7.20;99.90;;;;;;5033083;28;20033;-68
2022/04/04 12:00:32;;;;;;;18.90;3.10;;;7.20;99.90;;;;;;5032857;28;20091;-68
2022/04/04 12:03:11;;;;;;;18.70;2.90;;;7.20;99.90;;;;;;5033081;28;20025;-68
2022/04/04 12:05:42;;;;;;;22.02;2.63;;;7.30;99.90;;;;;;5033467;28;20033;-67
2022/04/04 12:08:11;;;;;;;12.50;2.20;;;7.30;99.90;;;;;;5036838;28;20049;-69
2022/04/04 12:10:38;;;;;;;15.57;2.45;;;7.30;99.90;;;;;;5036462;28;20044;-69
2022/04/04 12:13:18;;;;;;;22.85;3.28;;;7.30;99.90;;;;;;5036431;28;20549;-68
2022/04/04 12:15:44;;;;;;;16.95;3.05;;;7.30;99.90;;;;;;5036724;28;20075;-68
2022/04/04 12:18:12;;;;;;;20.27;2.80;;;7.30;99.90;;;;;;5036759;28;20025;-69
2022/04/04 12:20:37;;;;;;;16.33;2.97;;;7.30;99.90;;;;;;5036446;28;20053;-69
2022/04/04 12:25:49;;;;;;;36.25;4.57;;;7.40;99.90;;;;;;5036834;28;20378;-69
2022/04/04 12:28:35;;;;;;;23.95;3.85;;;7.40;99.90;;;;;;5036304;28;20025;-70
2022/04/04 12:31:13;;;;;;;21.55;3.35;;;7.40;99.90;;;;;;5036681;28;20095;-70
2022/04/04 12:33:39;;;;;;;26.02;3.95;;;7.50;99.90;;;;;;5037418;28;20029;-69
2022/04/04 12:36:05;;;;;;;32.17;4.97;;;7.60;99.90;;;;;;5037052;28;20059;-69
2022/04/04 12:38:33;;;;;;;23.13;4.50;;;7.60;99.90;;;;;;5036408;28;20426;-70
2022/04/04 12:41:16;;;;;;;39.92;5.18;;;7.50;99.90;;;;;;5036150;28;20057;-70
2022/04/04 12:43:44;;;;;;;48.00;5.53;;;7.60;99.90;;;;;;5035964;28;20025;-69
2022/04/04 12:46:31;;;;;;;45.67;6.25;;;7.60;99.90;;;;;;5036110;28;20021;-70
2022/04/04 12:49:13;;;;;;;43.45;6.13;;;7.70;99.90;;;;;;5036006;28;20024;-70
2022/04/04 12:51:40;;;;;;;60.40;9.10;;;7.70;99.90;;;;;;5035812;28;20114;-70
2022/04/04 12:54:06;;;;;;;61.13;8.25;;;7.70;99.90;;;;;;5035803;28;20017;-68
2022/04/04 12:56:48;;;;;;;59.72;6.35;;;7.70;99.90;;;;;;5035674;28;20026;-68
2022/04/04 12:59:14;;;;;;;73.57;9.02;;;7.70;99.90;;;;;;5035604;28;20100;-68